TimeAKDT,TemperatureF,Dew PointF,Humidity,Sea Level PressureIn,VisibilityMPH,Wind Direction,Wind SpeedMPH,Gust SpeedMPH,PrecipitationIn,Events,Conditions,WindDirDegrees,DateUTC
12:55 AM,10.2,-3.3,55,29.73,10.0,NE,6.9,-,N/A,,Overcast,50,2013-03-16 08:55:00
1:55 AM,10.9,-3.1,53,29.74,10.0,NE,5.8,-,N/A,,Mostly Cloudy,40,2013-03-16 09:55:00
2:55 AM,8.4,2.7,77,29.75,10.0,SE,4.6,-,N/A,,Overcast,140,2013-03-16 10:55:00
3:18 AM,8.6,3.2,79,29.72,10.0,East,3.5,-,N/A,Snow,Light Snow,100,2013-03-16 11:18:00
3:38 AM,8.6,5.0,85,29.75,5.0,Variable,2.3,-,N/A,Snow,Light Snow,0,2013-03-16 11:38:00
3:55 AM,8.6,5.2,86,29.75,6.0,East,2.3,-,N/A,Snow,Light Snow,100,2013-03-16 11:55:00
4:55 AM,10.8,6.6,83,29.76,10.0,East,4.6,-,N/A,Snow,Light Snow,80,2013-03-16 12:55:00
4:58 AM,10.4,6.8,85,29.76,10.0,East,4.6,-,N/A,Snow,Light Snow,90,2013-03-16 12:58:00
5:55 AM,11.1,7.0,83,29.77,10.0,ESE,3.5,-,N/A,,Mostly Cloudy,110,2013-03-16 13:55:00
6:55 AM,11.8,6.4,79,29.78,10.0,NE,3.5,-,N/A,,Clear,40,2013-03-16 14:55:00
7:55 AM,11.7,5.7,77,29.80,10.0,NE,4.6,-,N/A,,Mostly Cloudy,40,2013-03-16 15:55:00
8:55 AM,11.5,5.0,75,29.81,10.0,ENE,5.8,-,N/A,,Partly Cloudy,60,2013-03-16 16:55:00
9:55 AM,9.7,3.9,77,29.81,10.0,NE,9.2,-,N/A,,Mostly Cloudy,40,2013-03-16 17:55:00
10:55 AM,12.0,5.0,73,29.82,10.0,NE,5.8,-,N/A,,Overcast,50,2013-03-16 18:55:00
11:55 AM,10.8,4.5,76,29.83,10.0,NNE,9.2,-,N/A,,Mostly Cloudy,30,2013-03-16 19:55:00
12:55 PM,10.9,4.1,74,29.84,10.0,NE,10.4,-,N/A,,Overcast,40,2013-03-16 20:55:00
1:55 PM,11.3,4.6,75,29.86,10.0,NNE,5.8,-,N/A,,Overcast,30,2013-03-16 21:55:00
2:18 PM,12.2,6.8,79,29.86,10.0,NNE,2.3,-,N/A,Snow,Light Snow,30,2013-03-16 22:18:00
2:38 PM,14.0,6.8,73,29.86,10.0,North,3.5,-,N/A,,Overcast,350,2013-03-16 22:38:00
2:55 PM,13.3,7.9,79,29.86,10.0,WSW,1.2,-,N/A,,Overcast,250,2013-03-16 22:55:00
3:38 PM,12.2,8.6,85,29.86,7.0,NNE,5.8,-,N/A,Snow,Light Snow Showers,20,2013-03-16 23:38:00
3:55 PM,12.7,8.4,83,29.86,10.0,North,3.5,-,N/A,,Mostly Cloudy,350,2013-03-16 23:55:00
4:55 PM,13.5,11.5,92,29.87,10.0,SW,3.5,-,N/A,,Mostly Cloudy,220,2013-03-17 00:55:00
5:55 PM,12.4,10.2,91,29.88,10.0,ESE,2.3,-,N/A,,Mostly Cloudy,120,2013-03-17 01:55:00
6:55 PM,12.4,10.0,90,29.89,10.0,NE,1.2,-,N/A,,Mostly Cloudy,50,2013-03-17 02:55:00
7:55 PM,12.7,8.1,82,29.90,10.0,NNE,8.1,-,N/A,,Mostly Cloudy,30,2013-03-17 03:55:00
8:18 PM,14.0,6.8,73,29.90,10.0,NNE,8.1,-,N/A,Snow,Light Snow Showers,30,2013-03-17 04:18:00
8:38 PM,14.0,6.8,73,29.89,10.0,NNE,9.2,-,N/A,Snow,Light Snow Showers,20,2013-03-17 04:38:00
8:55 PM,13.8,6.8,74,29.90,10.0,NNE,8.1,-,N/A,,Mostly Cloudy,20,2013-03-17 04:55:00
9:18 PM,15.8,8.6,73,29.91,6.0,Variable,3.5,-,N/A,Snow,Light Snow Showers,0,2013-03-17 05:18:00
9:55 PM,14.0,11.1,88,29.92,1.8,Variable,2.3,-,N/A,Snow,Light Snow Showers,0,2013-03-17 05:55:00
10:18 PM,14.0,12.2,93,29.93,2.0,South,9.2,-,N/A,Snow,Light Snow,180,2013-03-17 06:18:00
10:38 PM,14.0,12.2,93,29.94,6.0,South,11.5,-,N/A,Snow,Light Snow,190,2013-03-17 06:38:00
10:55 PM,14.0,12.6,94,29.94,1.2,South,19.6,21.9,N/A,Snow,Light Snow,170,2013-03-17 06:55:00
11:18 PM,14.0,12.2,93,29.94,0.8,SSE,23.0,31.1,N/A,Snow,Light Snow,160,2013-03-17 07:18:00
11:38 PM,14.0,12.2,93,29.95,1.5,SSE,19.6,27.6,N/A,Snow,Light Snow,150,2013-03-17 07:38:00
11:55 PM,13.8,12.0,93,29.95,2.0,SSE,23.0,-,N/A,Snow,Light Snow,150,2013-03-17 07:55:00
11:58 PM,14.0,12.2,93,29.96,1.2,SSE,23.0,-,N/A,Snow,Light Snow,150,2013-03-17 07:58:00